createdAt,value
2022-10-30T00:01:40.291Z,97043.06
2022-10-30T00:04:37.203Z,97040.63
2022-10-30T00:07:34.713Z,97041.56
2022-10-30T00:10:31.543Z,97044.06
2022-10-30T00:13:28.397Z,97045.16
2022-10-30T00:16:25.291Z,97048.00
2022-10-30T00:19:22.245Z,97039.16
2022-10-30T00:22:19.189Z,97046.84
2022-10-30T00:25:16.086Z,97041.44
2022-10-30T00:28:13.203Z,97037.09
2022-10-30T00:31:10.424Z,97042.50
2022-10-30T00:34:07.387Z,97051.06
2022-10-30T00:37:04.223Z,97048.75
2022-10-30T00:40:01.089Z,97040.81
2022-10-30T00:42:57.954Z,97036.97
2022-10-30T00:45:55.930Z,97048.91
2022-10-30T00:49:16.059Z,97038.50
2022-10-30T00:52:12.921Z,97038.88
2022-10-30T00:55:17.370Z,97041.41
2022-10-30T00:58:19.834Z,97042.31
2022-10-30T01:01:24.494Z,97032.50
2022-10-30T01:04:27.399Z,97040.91
2022-10-30T01:07:27.288Z,97022.47
2022-10-30T01:10:24.324Z,97019.53
2022-10-30T01:13:23.095Z,97020.03
2022-10-30T01:16:54.464Z,97029.78
2022-10-30T01:20:00.186Z,97027.81
2022-10-30T01:23:46.798Z,97022.84
2022-10-30T01:27:02.558Z,97026.78
2022-10-30T01:30:11.267Z,97023.63
2022-10-30T01:33:42.437Z,97027.25
2022-10-30T01:36:49.388Z,97023.25
2022-10-30T01:39:46.413Z,97026.22
2022-10-30T01:42:56.981Z,97022.53
2022-10-30T01:46:26.988Z,97024.69
2022-10-30T01:50:09.555Z,97030.81
2022-10-30T01:53:22.848Z,97028.09
2022-10-30T01:56:44.098Z,97019.09
2022-10-30T02:00:13.896Z,97019.44
2022-10-30T02:03:10.876Z,97014.63
2022-10-30T02:06:07.870Z,97002.06
2022-10-30T02:09:06.111Z,97003.44
2022-10-30T02:12:04.277Z,96996.13
2022-10-30T02:15:01.675Z,97002.06
2022-10-30T02:17:59.083Z,96992.38
2022-10-30T02:20:56.412Z,97000.41
2022-10-30T02:23:53.254Z,96997.50
2022-10-30T02:26:50.144Z,96995.59
2022-10-30T02:29:46.997Z,96989.91
2022-10-30T02:32:44.524Z,96990.41
2022-10-30T02:35:41.429Z,96990.66
2022-10-30T02:38:38.257Z,96995.47
2022-10-30T02:41:35.492Z,96985.38
2022-10-30T02:44:32.479Z,96983.91
2022-10-30T02:47:29.519Z,96986.97
2022-10-30T02:50:26.995Z,96980.50
2022-10-30T02:53:23.851Z,96975.22
2022-10-30T02:56:20.638Z,96972.00
2022-10-30T02:59:17.533Z,96972.59
2022-10-30T03:02:14.626Z,96965.94
2022-10-30T03:05:11.565Z,96976.28
2022-10-30T03:08:08.389Z,96964.09
2022-10-30T03:11:12.392Z,96968.53
2022-10-30T03:14:09.247Z,96969.72
2022-10-30T03:17:06.136Z,96964.50
2022-10-30T03:20:03.036Z,96971.09
2022-10-30T03:22:59.856Z,96972.16
2022-10-30T03:25:58.849Z,96975.72
2022-10-30T03:28:55.669Z,96972.06
2022-10-30T03:31:52.490Z,96972.97
2022-10-30T03:34:49.323Z,96979.00
2022-10-30T03:37:46.131Z,96977.16
2022-10-30T03:40:42.933Z,96986.28
2022-10-30T03:43:39.752Z,96982.75
2022-10-30T03:46:36.577Z,96978.13
2022-10-30T03:49:33.372Z,96978.91
2022-10-30T03:52:30.180Z,96982.94
2022-10-30T03:55:27.056Z,96985.03
2022-10-30T03:58:23.879Z,96984.47
2022-10-30T04:01:21.492Z,96987.06
2022-10-30T04:04:18.482Z,96980.59
2022-10-30T04:07:15.462Z,96978.47
2022-10-30T04:10:16.671Z,96974.75
2022-10-30T04:13:17.667Z,96982.66
2022-10-30T04:16:14.476Z,96982.47
2022-10-30T04:19:11.279Z,96984.19
2022-10-30T04:22:08.088Z,96982.75
2022-10-30T04:25:05.841Z,96983.59
2022-10-30T04:28:03.745Z,96993.34
2022-10-30T04:31:01.769Z,96980.34
2022-10-30T04:33:58.864Z,96989.16
2022-10-30T04:36:55.686Z,96990.88
2022-10-30T04:39:52.508Z,96990.88
2022-10-30T04:42:49.801Z,96997.19
2022-10-30T04:45:46.630Z,96994.09
2022-10-30T04:48:44.978Z,97000.94
2022-10-30T04:51:41.801Z,96997.31
2022-10-30T04:54:38.587Z,96998.41
2022-10-30T04:57:36.894Z,96998.06
2022-10-30T05:00:33.772Z,97002.09
2022-10-30T05:03:30.619Z,96992.78
2022-10-30T05:06:30.322Z,96997.94
2022-10-30T05:09:27.127Z,96999.47
2022-10-30T05:12:24.018Z,96996.88
2022-10-30T05:15:21.387Z,96996.47
2022-10-30T05:18:19.420Z,96999.47
2022-10-30T05:21:16.307Z,96991.84
2022-10-30T05:24:13.112Z,96986.00
2022-10-30T05:27:09.921Z,96984.56
2022-10-30T05:30:07.696Z,96981.78
2022-10-30T05:33:07.952Z,96976.44
2022-10-30T05:36:05.371Z,96969.97
2022-10-30T05:39:03.001Z,96978.97
2022-10-30T05:41:59.849Z,96966.72
2022-10-30T05:45:01.070Z,96963.63
2022-10-30T05:48:04.807Z,96958.94
2022-10-30T05:51:01.670Z,96949.09
2022-10-30T05:53:58.576Z,96953.34
2022-10-30T05:56:57.409Z,96954.13
2022-10-30T05:59:54.586Z,96956.72
2022-10-30T06:02:51.693Z,96952.22
2022-10-30T06:05:48.812Z,96959.06
2022-10-30T06:08:45.835Z,96966.22
2022-10-30T06:11:42.745Z,96953.53
2022-10-30T06:14:39.567Z,96960.13
2022-10-30T06:17:36.393Z,96949.34
2022-10-30T06:20:33.452Z,96951.56
2022-10-30T06:23:30.276Z,96952.63
2022-10-30T06:26:27.166Z,96952.97
2022-10-30T06:29:24.032Z,96963.50
2022-10-30T06:32:22.235Z,96963.53
2022-10-30T06:35:19.045Z,96969.47
2022-10-30T06:38:17.084Z,96965.03
2022-10-30T06:41:13.926Z,96967.09
2022-10-30T06:44:11.616Z,96968.72
2022-10-30T06:47:08.791Z,96972.19
2022-10-30T06:50:08.207Z,96971.63
2022-10-30T06:53:05.043Z,96974.53
2022-10-30T06:56:03.677Z,96979.47
2022-10-30T06:59:00.535Z,96981.28
2022-10-30T07:02:00.427Z,96990.38
2022-10-30T07:04:58.632Z,96981.34
2022-10-30T07:07:58.799Z,96982.41
2022-10-30T07:10:58.635Z,96979.28
2022-10-30T07:13:55.591Z,96986.69
2022-10-30T07:16:55.751Z,96985.56
2022-10-30T07:19:52.680Z,96983.53
2022-10-30T07:22:49.981Z,96980.22
2022-10-30T07:25:46.792Z,96982.94
2022-10-30T07:28:43.601Z,96984.88
2022-10-30T07:31:42.353Z,96986.03
2022-10-30T07:34:39.668Z,96993.88
2022-10-30T07:37:36.565Z,96990.00
2022-10-30T07:40:34.128Z,96988.00
2022-10-30T07:43:30.949Z,96976.47
2022-10-30T07:46:27.774Z,96987.28
2022-10-30T07:49:24.652Z,96987.03
2022-10-30T07:52:21.479Z,96982.97
2022-10-30T07:55:18.392Z,96992.00
2022-10-30T07:58:15.334Z,96986.97
2022-10-30T08:01:12.208Z,96992.91
2022-10-30T08:04:11.230Z,96986.69
2022-10-30T08:07:08.106Z,96983.00
2022-10-30T08:10:07.120Z,96991.06
2022-10-30T08:13:04.315Z,96993.22
2022-10-30T08:16:01.202Z,96993.22
2022-10-30T08:18:58.038Z,96997.22
2022-10-30T08:21:59.227Z,96998.25
2022-10-30T08:24:57.266Z,96992.50
2022-10-30T08:27:57.039Z,97011.38
2022-10-30T08:30:53.946Z,97003.84
2022-10-30T08:33:50.813Z,97000.25
2022-10-30T08:36:51.763Z,97006.53
2022-10-30T08:39:48.686Z,97010.19
2022-10-30T08:42:55.097Z,97006.47
2022-10-30T08:45:52.022Z,97011.59
2022-10-30T08:48:49.024Z,97011.50
2022-10-30T08:51:46.165Z,97012.13
2022-10-30T08:54:43.072Z,97016.66
2022-10-30T08:57:39.977Z,97018.56
2022-10-30T09:00:37.040Z,97010.59
2022-10-30T09:03:34.076Z,97002.22
2022-10-30T09:06:31.911Z,96999.59
2022-10-30T09:09:28.764Z,97002.00
2022-10-30T09:12:25.648Z,96993.56
2022-10-30T09:15:23.088Z,96997.44
2022-10-30T09:18:20.242Z,96991.41
2022-10-30T09:21:17.340Z,96976.94
2022-10-30T09:24:14.157Z,96975.47
2022-10-30T09:27:11.033Z,96973.94
2022-10-30T09:30:09.041Z,96969.63
2022-10-30T09:33:05.996Z,96968.16
2022-10-30T09:36:03.160Z,96959.09
2022-10-30T09:39:00.187Z,96952.31
2022-10-30T09:42:21.118Z,96951.16
2022-10-30T09:45:56.164Z,96961.81
2022-10-30T09:49:20.066Z,96960.66
2022-10-30T09:52:44.071Z,96955.81
2022-10-30T09:56:01.985Z,96957.41
2022-10-30T09:59:17.483Z,96956.50
2022-10-30T10:02:29.805Z,96947.69
2022-10-30T10:05:41.304Z,96947.66
2022-10-30T10:08:44.431Z,96948.25
2022-10-30T10:11:47.390Z,96955.34
2022-10-30T10:14:47.393Z,96944.13
2022-10-30T10:17:46.842Z,96942.59
2022-10-30T10:20:47.775Z,96941.47
2022-10-30T10:23:49.567Z,96935.16
2022-10-30T10:26:56.925Z,96939.16
2022-10-30T10:30:23.351Z,96931.84
2022-10-30T10:34:12.957Z,96939.66
2022-10-30T10:37:53.824Z,96928.44
2022-10-30T10:41:41.135Z,96933.59
2022-10-30T10:45:50.516Z,96931.31
2022-10-30T10:49:45.293Z,96924.19
2022-10-30T10:53:02.180Z,96916.91
2022-10-30T10:56:01.282Z,96915.34
2022-10-30T10:59:08.968Z,96906.81
2022-10-30T11:02:05.842Z,96907.28
2022-10-30T11:05:20.641Z,96904.19
2022-10-30T11:08:25.502Z,96900.41
2022-10-30T11:11:22.609Z,96898.94
2022-10-30T11:14:29.736Z,96891.00
2022-10-30T11:17:41.870Z,96891.50
2022-10-30T11:21:05.973Z,96895.81
2022-10-30T11:24:02.851Z,96883.72
2022-10-30T11:27:24.085Z,96893.56
2022-10-30T11:30:28.511Z,96889.72
2022-10-30T11:33:30.536Z,96879.13
2022-10-30T11:36:27.375Z,96879.53
2022-10-30T11:39:30.931Z,96876.78
2022-10-30T11:42:27.779Z,96880.84
2022-10-30T11:45:28.819Z,96880.69
2022-10-30T11:48:33.915Z,96878.63
2022-10-30T11:51:37.268Z,96877.84
2022-10-30T11:54:41.595Z,96872.38
2022-10-30T11:57:44.698Z,96877.75
2022-10-30T12:00:41.739Z,96883.25
2022-10-30T12:03:41.497Z,96882.22
2022-10-30T12:06:38.389Z,96868.41
2022-10-30T12:09:47.745Z,96880.00
2022-10-30T12:12:44.705Z,96871.25
2022-10-30T12:15:43.750Z,96869.09
2022-10-30T12:18:41.322Z,96877.66
2022-10-30T12:21:45.017Z,96874.53
2022-10-30T12:24:44.241Z,96871.09
2022-10-30T12:27:41.242Z,96873.88
2022-10-30T12:31:03.736Z,96877.91
2022-10-30T12:34:18.040Z,96866.84
2022-10-30T12:37:32.264Z,96870.63
2022-10-30T12:40:40.544Z,96869.84
2022-10-30T12:43:39.877Z,96872.09
2022-10-30T12:46:52.240Z,96872.66
2022-10-30T12:49:55.437Z,96866.88
2022-10-30T12:53:09.597Z,96873.94
2022-10-30T12:56:15.181Z,96863.44
2022-10-30T12:59:11.903Z,96870.25
2022-10-30T13:02:46.945Z,96862.88
2022-10-30T13:05:55.008Z,96860.88
2022-10-30T13:09:08.012Z,96864.47
2022-10-30T13:12:23.864Z,96858.34
2022-10-30T13:15:33.165Z,96861.88
2022-10-30T13:18:32.644Z,96855.84
2022-10-30T13:22:01.291Z,96845.91
2022-10-30T13:25:07.223Z,96855.56
2022-10-30T13:28:13.410Z,96858.69
2022-10-30T13:31:24.179Z,96850.03
2022-10-30T13:34:53.904Z,96840.09
2022-10-30T13:38:34.164Z,96844.50
2022-10-30T13:42:15.913Z,96843.09
2022-10-30T13:45:38.871Z,96843.88
2022-10-30T13:49:11.731Z,96844.50
2022-10-30T13:52:17.868Z,96839.75
2022-10-30T13:55:32.580Z,96845.41
2022-10-30T13:59:02.949Z,96842.22
2022-10-30T14:02:31.616Z,96846.66
2022-10-30T14:05:55.093Z,96847.69
2022-10-30T14:09:24.827Z,96836.53
2022-10-30T14:12:57.085Z,96842.75
2022-10-30T14:16:07.435Z,96850.69
2022-10-30T14:19:07.882Z,96841.81
2022-10-30T14:22:22.854Z,96846.75
2022-10-30T14:25:19.850Z,96845.66
2022-10-30T14:28:20.853Z,96850.72
2022-10-30T14:31:32.065Z,96854.22
2022-10-30T14:34:49.971Z,96851.94
2022-10-30T14:37:46.677Z,96847.91
2022-10-30T14:40:56.271Z,96850.34
2022-10-30T14:44:17.268Z,96854.88
2022-10-30T14:47:25.459Z,96844.91
2022-10-30T14:50:30.704Z,96851.47
2022-10-30T14:53:49.191Z,96855.06
2022-10-30T14:56:49.224Z,96857.88
2022-10-30T14:59:46.064Z,96857.72
2022-10-30T15:03:45.982Z,96861.09
2022-10-30T15:06:59.518Z,96872.09
2022-10-30T15:10:29.909Z,96864.50
2022-10-30T15:13:27.220Z,96862.00
2022-10-30T15:16:26.427Z,96869.91
2022-10-30T15:19:24.868Z,96868.66
2022-10-30T15:22:27.969Z,96872.19
2022-10-30T15:25:31.914Z,96868.81
2022-10-30T15:28:32.405Z,96873.66
2022-10-30T15:31:30.324Z,96876.72
2022-10-30T15:34:34.952Z,96875.53
2022-10-30T15:37:32.412Z,96878.53
2022-10-30T15:40:33.305Z,96882.22
2022-10-30T15:43:35.922Z,96877.44
2022-10-30T15:46:32.962Z,96885.81
2022-10-30T15:49:40.272Z,96879.97
2022-10-30T15:52:42.329Z,96890.09
2022-10-30T15:55:39.270Z,96882.81
2022-10-30T15:58:37.486Z,96893.09
2022-10-30T16:01:39.049Z,96898.47
2022-10-30T16:04:36.823Z,96901.50
2022-10-30T16:07:33.887Z,96896.41
2022-10-30T16:10:35.673Z,96900.28
2022-10-30T16:13:35.267Z,96896.28
2022-10-30T16:16:33.587Z,96911.00
2022-10-30T16:19:46.767Z,96901.09
2022-10-30T16:22:43.649Z,96906.94
2022-10-30T16:25:46.764Z,96896.19
2022-10-30T16:28:47.917Z,96901.41
2022-10-30T16:31:49.797Z,96906.75
2022-10-30T16:34:47.826Z,96902.53
2022-10-30T16:37:44.900Z,96900.19
2022-10-30T16:40:41.948Z,96905.72
2022-10-30T16:43:40.226Z,96901.38
2022-10-30T16:47:22.616Z,96907.19
2022-10-30T16:50:27.852Z,96899.72
2022-10-30T16:53:28.518Z,96915.56
2022-10-30T16:56:27.959Z,96913.72
2022-10-30T16:59:38.904Z,96917.81
2022-10-30T17:02:43.250Z,96925.94
2022-10-30T17:05:43.614Z,96918.38
2022-10-30T17:08:43.212Z,96926.34
2022-10-30T17:12:01.427Z,96928.22
2022-10-30T17:15:07.085Z,96931.81
2022-10-30T17:18:15.381Z,96934.00
2022-10-30T17:21:20.288Z,96937.16
2022-10-30T17:24:28.013Z,96942.41
2022-10-30T17:27:46.580Z,96940.47
2022-10-30T17:30:44.651Z,96945.44
2022-10-30T17:33:41.518Z,96947.63
2022-10-30T17:36:38.677Z,96952.59
2022-10-30T17:39:35.512Z,96956.00
2022-10-30T17:42:32.349Z,96956.38
2022-10-30T17:45:30.198Z,96953.59
2022-10-30T17:48:30.416Z,96960.06
2022-10-30T17:51:29.282Z,96963.84
2022-10-30T17:54:26.369Z,96965.72
2022-10-30T17:57:25.323Z,96964.22
2022-10-30T18:00:22.214Z,96969.41
2022-10-30T18:03:19.018Z,96961.25
2022-10-30T18:06:20.557Z,96968.00
2022-10-30T18:09:20.220Z,96968.09
2022-10-30T18:12:19.134Z,96965.00
2022-10-30T18:15:35.986Z,96979.56
2022-10-30T18:18:32.806Z,96978.59
2022-10-30T18:21:31.273Z,96980.97
2022-10-30T18:24:28.120Z,96982.25
2022-10-30T18:27:24.952Z,96978.59
2022-10-30T18:30:22.080Z,96982.13
2022-10-30T18:33:19.484Z,96982.25
2022-10-30T18:36:23.220Z,96984.13
2022-10-30T18:39:20.065Z,96992.72
2022-10-30T18:42:21.493Z,96987.66
2022-10-30T18:45:34.287Z,96993.31
2022-10-30T18:48:31.213Z,96987.41
2022-10-30T18:51:28.888Z,96981.88
2022-10-30T18:54:25.729Z,96988.19
2022-10-30T18:57:24.655Z,96984.78
2022-10-30T19:00:25.884Z,96985.06
2022-10-30T19:03:23.316Z,96989.47
2022-10-30T19:06:24.100Z,96993.97
2022-10-30T19:09:20.846Z,96995.88
2022-10-30T19:12:17.681Z,96988.13
2022-10-30T19:15:24.814Z,96993.78
2022-10-30T19:18:25.332Z,96994.72
2022-10-30T19:21:26.227Z,97002.50
2022-10-30T19:24:23.134Z,96998.91
2022-10-30T19:27:21.124Z,96998.19
2022-10-30T19:30:20.329Z,97003.25
2022-10-30T19:33:22.870Z,97006.78
2022-10-30T19:36:33.798Z,97005.50
2022-10-30T19:39:32.951Z,97003.31
2022-10-30T19:42:29.754Z,97008.63
2022-10-30T19:45:30.333Z,97009.91
2022-10-30T19:48:56.272Z,97016.63
2022-10-30T19:51:43.965Z,97016.69
2022-10-30T19:54:40.778Z,97012.72
2022-10-30T19:57:37.600Z,97008.53
2022-10-30T20:00:40.589Z,97005.28
2022-10-30T20:03:37.440Z,97017.59
2022-10-30T20:06:34.359Z,97024.06
2022-10-30T20:09:31.965Z,97021.03
2022-10-30T20:12:28.781Z,97027.47
2022-10-30T20:15:27.597Z,97023.88
2022-10-30T20:18:30.324Z,97027.19
2022-10-30T20:21:27.863Z,97033.44
2022-10-30T20:24:24.723Z,97032.75
2022-10-30T20:27:21.580Z,97036.28
2022-10-30T20:30:22.852Z,97037.28
2022-10-30T20:33:20.807Z,97053.81
2022-10-30T20:36:17.754Z,97049.88
2022-10-30T20:39:14.617Z,97048.72
2022-10-30T20:42:14.603Z,97043.28
2022-10-30T20:45:21.410Z,97052.63
2022-10-30T20:48:18.211Z,97055.69
2022-10-30T20:51:15.495Z,97062.16
2022-10-30T20:54:12.320Z,97065.50
2022-10-30T20:57:09.197Z,97055.69
2022-10-30T21:00:09.107Z,97055.44
2022-10-30T21:03:06.892Z,97050.41
2022-10-30T21:06:03.838Z,97054.19
2022-10-30T21:09:00.683Z,97055.06
2022-10-30T21:11:57.590Z,97054.88
2022-10-30T21:14:54.462Z,97058.91
2022-10-30T21:17:51.371Z,97060.16
2022-10-30T21:20:48.180Z,97055.66
2022-10-30T21:23:46.069Z,97059.00
2022-10-30T21:26:42.997Z,97055.59
2022-10-30T21:29:39.806Z,97054.63
2022-10-30T21:32:36.718Z,97058.63
2022-10-30T21:35:34.253Z,97054.47
2022-10-30T21:38:32.750Z,97050.94
2022-10-30T21:41:29.614Z,97045.88
2022-10-30T21:44:26.467Z,97053.22
2022-10-30T21:47:23.313Z,97044.72
2022-10-30T21:50:20.200Z,97069.06
2022-10-30T21:53:17.007Z,97059.88
2022-10-30T21:56:17.840Z,97052.06
2022-10-30T21:59:14.604Z,97051.50
2022-10-30T22:02:15.152Z,97054.63
2022-10-30T22:05:12.112Z,97045.56
2022-10-30T22:08:08.921Z,97038.66
2022-10-30T22:11:08.984Z,97043.22
2022-10-30T22:14:06.366Z,97046.19
2022-10-30T22:17:03.238Z,97037.59
2022-10-30T22:20:00.046Z,97044.38
2022-10-30T22:22:56.900Z,97050.16
2022-10-30T22:26:02.680Z,97047.31
2022-10-30T22:29:00.880Z,97044.34
2022-10-30T22:31:57.714Z,97040.25
2022-10-30T22:34:56.587Z,97046.38
2022-10-30T22:37:53.395Z,97037.03
2022-10-30T22:40:50.220Z,97035.69
2022-10-30T22:43:48.617Z,97042.56
2022-10-30T22:46:45.859Z,97044.53
2022-10-30T22:49:42.664Z,97040.84
2022-10-30T22:52:39.456Z,97046.75
2022-10-30T22:55:36.271Z,97041.06
2022-10-30T22:58:33.090Z,97049.13
2022-10-30T23:01:33.114Z,97048.56
2022-10-30T23:04:29.986Z,97051.25
2022-10-30T23:07:26.786Z,97050.72
2022-10-30T23:10:23.603Z,97048.78
2022-10-30T23:16:26.087Z,97052.69
2022-10-30T23:19:22.905Z,97046.91
2022-10-30T23:22:19.716Z,97051.59
2022-10-30T23:25:16.657Z,97050.88
2022-10-30T23:28:13.542Z,97053.31
2022-10-30T23:31:29.235Z,97048.75
2022-10-30T23:34:26.055Z,97048.78
2022-10-30T23:37:23.198Z,97059.47
2022-10-30T23:40:20.839Z,97054.09
2022-10-30T23:43:17.692Z,97053.31
2022-10-30T23:46:14.513Z,97055.63
2022-10-30T23:49:11.605Z,97051.44
2022-10-30T23:52:08.424Z,97048.53
2022-10-30T23:55:05.934Z,97050.72
2022-10-30T23:58:03.146Z,97055.78
